sensor_id;sensor_type;location;lat;lon;timestamp;pressure;altitude;pressure_sealevel;temperature;humidity
9421;BME280;4749;51.398;5.466;2022-12-07T00:01:42;101648.78;;;5.72;100.00
9421;BME280;4749;51.398;5.466;2022-12-07T00:04:14;101645.28;;;5.71;100.00
9421;BME280;4749;51.398;5.466;2022-12-07T00:06:45;101655.66;;;5.70;100.00
9421;BME280;4749;51.398;5.466;2022-12-07T00:09:16;101659.16;;;5.70;100.00
9421;BME280;4749;51.398;5.466;2022-12-07T00:11:45;101657.34;;;5.68;100.00
9421;BME280;4749;51.398;5.466;2022-12-07T00:14:16;101650.34;;;5.67;100.00
9421;BME280;4749;51.398;5.466;2022-12-07T00:16:44;101641.50;;;5.63;100.00
9421;BME280;4749;51.398;5.466;2022-12-07T00:19:13;101637.81;;;5.56;100.00
9421;BME280;4749;51.398;5.466;2022-12-07T00:21:41;101641.91;;;5.50;100.00
9421;BME280;4749;51.398;5.466;2022-12-07T00:24:10;101637.38;;;5.44;100.00
9421;BME280;4749;51.398;5.466;2022-12-07T00:26:39;101647.56;;;5.38;100.00
9421;BME280;4749;51.398;5.466;2022-12-07T00:29:17;101639.53;;;5.32;100.00
9421;BME280;4749;51.398;5.466;2022-12-07T00:31:45;101634.09;;;5.26;100.00
9421;BME280;4749;51.398;5.466;2022-12-07T00:34:19;101631.38;;;5.23;100.00
9421;BME280;4749;51.398;5.466;2022-12-07T00:36:49;101633.03;;;5.21;100.00
9421;BME280;4749;51.398;5.466;2022-12-07T00:39:16;101629.38;;;5.16;100.00
9421;BME280;4749;51.398;5.466;2022-12-07T00:41:44;101630.16;;;5.13;100.00
9421;BME280;4749;51.398;5.466;2022-12-07T00:44:11;101636.97;;;5.09;100.00
9421;BME280;4749;51.398;5.466;2022-12-07T00:46:38;101629.88;;;5.05;100.00
9421;BME280;4749;51.398;5.466;2022-12-07T00:49:06;101636.72;;;5.03;100.00
9421;BME280;4749;51.398;5.466;2022-12-07T00:51:33;101621.88;;;5.01;100.00
9421;BME280;4749;51.398;5.466;2022-12-07T00:54:00;101624.41;;;4.99;100.00
9421;BME280;4749;51.398;5.466;2022-12-07T00:56:29;101627.72;;;4.95;100.00
9421;BME280;4749;51.398;5.466;2022-12-07T00:59:02;101623.34;;;4.94;100.00
9421;BME280;4749;51.398;5.466;2022-12-07T01:01:33;101615.53;;;4.94;100.00
9421;BME280;4749;51.398;5.466;2022-12-07T01:04:01;101614.66;;;4.94;100.00
9421;BME280;4749;51.398;5.466;2022-12-07T01:06:29;101618.09;;;4.93;100.00
9421;BME280;4749;51.398;5.466;2022-12-07T01:08:56;101619.81;;;4.92;100.00
9421;BME280;4749;51.398;5.466;2022-12-07T01:11:28;101621.53;;;4.92;100.00
9421;BME280;4749;51.398;5.466;2022-12-07T01:13:57;101625.78;;;4.90;100.00
9421;BME280;4749;51.398;5.466;2022-12-07T01:16:28;101624.84;;;4.88;100.00
9421;BME280;4749;51.398;5.466;2022-12-07T01:18:56;101626.53;;;4.87;100.00
9421;BME280;4749;51.398;5.466;2022-12-07T01:21:31;101623.88;;;4.86;100.00
9421;BME280;4749;51.398;5.466;2022-12-07T01:24:05;101625.56;;;4.84;100.00
9421;BME280;4749;51.398;5.466;2022-12-07T01:26:33;101622.75;;;4.79;100.00
9421;BME280;4749;51.398;5.466;2022-12-07T01:29:00;101630.47;;;4.76;100.00
9421;BME280;4749;51.398;5.466;2022-12-07T01:31:29;101627.81;;;4.74;100.00
9421;BME280;4749;51.398;5.466;2022-12-07T01:33:59;101622.50;;;4.71;100.00
9421;BME280;4749;51.398;5.466;2022-12-07T01:36:32;101629.34;;;4.69;100.00
9421;BME280;4749;51.398;5.466;2022-12-07T01:39:06;101623.22;;;4.69;100.00
9421;BME280;4749;51.398;5.466;2022-12-07T01:41:38;101629.28;;;4.68;100.00
9421;BME280;4749;51.398;5.466;2022-12-07T01:44:26;101633.03;;;4.74;100.00
9421;BME280;4749;51.398;5.466;2022-12-07T01:47:02;101634.97;;;4.80;100.00
9421;BME280;4749;51.398;5.466;2022-12-07T01:49:41;101632.47;;;4.83;100.00
9421;BME280;4749;51.398;5.466;2022-12-07T01:52:18;101632.72;;;4.89;100.00
9421;BME280;4749;51.398;5.466;2022-12-07T01:54:49;101630.28;;;4.94;100.00
9421;BME280;4749;51.398;5.466;2022-12-07T01:57:18;101623.47;;;4.97;100.00
9421;BME280;4749;51.398;5.466;2022-12-07T01:59:48;101620.97;;;5.00;100.00
9421;BME280;4749;51.398;5.466;2022-12-07T02:02:36;101628.09;;;5.04;100.00
9421;BME280;4749;51.398;5.466;2022-12-07T02:05:06;101624.72;;;5.07;100.00
9421;BME280;4749;51.398;5.466;2022-12-07T02:07:36;101633.53;;;5.11;100.00
9421;BME280;4749;51.398;5.466;2022-12-07T02:10:26;101631.09;;;5.15;100.00
9421;BME280;4749;51.398;5.466;2022-12-07T02:13:10;101626.81;;;5.17;100.00
9421;BME280;4749;51.398;5.466;2022-12-07T02:31:08;101609.75;;;5.25;100.00
9421;BME280;4749;51.398;5.466;2022-12-07T02:33:46;101608.13;;;5.29;100.00
9421;BME280;4749;51.398;5.466;2022-12-07T02:36:40;101619.44;;;5.29;100.00
9421;BME280;4749;51.398;5.466;2022-12-07T02:39:54;101617.75;;;5.30;100.00
9421;BME280;4749;51.398;5.466;2022-12-07T02:42:22;101621.09;;;5.27;100.00
9421;BME280;4749;51.398;5.466;2022-12-07T02:44:51;101612.25;;;5.22;100.00
9421;BME280;4749;51.398;5.466;2022-12-07T02:47:20;101611.19;;;5.17;100.00
9421;BME280;4749;51.398;5.466;2022-12-07T02:49:49;101607.50;;;5.12;100.00
9421;BME280;4749;51.398;5.466;2022-12-07T02:52:17;101610.78;;;5.06;100.00
9421;BME280;4749;51.398;5.466;2022-12-07T02:54:44;101614.97;;;5.03;100.00
9421;BME280;4749;51.398;5.466;2022-12-07T02:57:33;101612.97;;;4.96;100.00
9421;BME280;4749;51.398;5.466;2022-12-07T03:00:08;101609.22;;;4.88;100.00
9421;BME280;4749;51.398;5.466;2022-12-07T03:03:14;101606.38;;;4.82;100.00
9421;BME280;4749;51.398;5.466;2022-12-07T03:06:25;101613.06;;;4.75;100.00
9421;BME280;4749;51.398;5.466;2022-12-07T03:09:14;101614.69;;;4.71;100.00
9421;BME280;4749;51.398;5.466;2022-12-07T03:11:47;101618.06;;;4.70;100.00
9421;BME280;4749;51.398;5.466;2022-12-07T03:14:25;101620.69;;;4.70;100.00
9421;BME280;4749;51.398;5.466;2022-12-07T03:17:20;101612.13;;;4.73;100.00
9421;BME280;4749;51.398;5.466;2022-12-07T03:19:52;101613.91;;;4.74;100.00
9421;BME280;4749;51.398;5.466;2022-12-07T03:22:22;101614.84;;;4.76;100.00
9421;BME280;4749;51.398;5.466;2022-12-07T03:24:55;101620.97;;;4.78;100.00
9421;BME280;4749;51.398;5.466;2022-12-07T03:28:05;101616.66;;;4.78;100.00
9421;BME280;4749;51.398;5.466;2022-12-07T03:30:54;101616.50;;;4.74;100.00
9421;BME280;4749;51.398;5.466;2022-12-07T03:36:32;101606.66;;;4.67;100.00
9421;BME280;4749;51.398;5.466;2022-12-07T03:39:36;101606.66;;;4.67;100.00
9421;BME280;4749;51.398;5.466;2022-12-07T03:42:07;101603.19;;;4.66;100.00
9421;BME280;4749;51.398;5.466;2022-12-07T03:44:36;101603.22;;;4.68;100.00
9421;BME280;4749;51.398;5.466;2022-12-07T03:47:29;101603.38;;;4.71;100.00
9421;BME280;4749;51.398;5.466;2022-12-07T03:52:59;101591.97;;;4.69;100.00
9421;BME280;4749;51.398;5.466;2022-12-07T03:55:32;101603.22;;;4.68;100.00
9421;BME280;4749;51.398;5.466;2022-12-07T03:58:09;101600.69;;;4.69;100.00
9421;BME280;4749;51.398;5.466;2022-12-07T04:00:38;101614.84;;;4.76;100.00
9421;BME280;4749;51.398;5.466;2022-12-07T04:03:05;101620.22;;;4.80;100.00
9421;BME280;4749;51.398;5.466;2022-12-07T04:05:32;101615.22;;;4.87;100.00
9421;BME280;4749;51.398;5.466;2022-12-07T04:08:00;101605.84;;;4.90;100.00
9421;BME280;4749;51.398;5.466;2022-12-07T04:10:27;101605.94;;;4.93;100.00
9421;BME280;4749;51.398;5.466;2022-12-07T04:12:55;101612.16;;;4.97;100.00
9421;BME280;4749;51.398;5.466;2022-12-07T04:15:22;101609.66;;;5.00;100.00
9421;BME280;4749;51.398;5.466;2022-12-07T04:17:50;101607.16;;;5.03;100.00
9421;BME280;4749;51.398;5.466;2022-12-07T04:20:18;101614.22;;;5.05;100.00
9421;BME280;4749;51.398;5.466;2022-12-07T04:22:45;101610.00;;;5.09;100.00
9421;BME280;4749;51.398;5.466;2022-12-07T04:25:12;101610.06;;;5.11;100.00
9421;BME280;4749;51.398;5.466;2022-12-07T04:27:39;101613.69;;;5.14;100.00
9421;BME280;4749;51.398;5.466;2022-12-07T04:30:07;101613.78;;;5.17;100.00
9421;BME280;4749;51.398;5.466;2022-12-07T04:32:34;101604.28;;;5.19;100.00
9421;BME280;4749;51.398;5.466;2022-12-07T04:35:02;101594.84;;;5.21;100.00
9421;BME280;4749;51.398;5.466;2022-12-07T04:37:30;101597.53;;;5.24;100.00
9421;BME280;4749;51.398;5.466;2022-12-07T04:39:57;101599.34;;;5.27;100.00
9421;BME280;4749;51.398;5.466;2022-12-07T04:42:24;101584.59;;;5.27;100.00
9421;BME280;4749;51.398;5.466;2022-12-07T04:44:51;101579.38;;;5.27;100.00
9421;BME280;4749;51.398;5.466;2022-12-07T04:47:18;101583.75;;;5.28;100.00
9421;BME280;4749;51.398;5.466;2022-12-07T04:49:46;101581.25;;;5.30;100.00
9421;BME280;4749;51.398;5.466;2022-12-07T04:52:13;101580.31;;;5.29;100.00
9421;BME280;4749;51.398;5.466;2022-12-07T04:54:40;101586.50;;;5.31;100.00
9421;BME280;4749;51.398;5.466;2022-12-07T04:57:07;101582.22;;;5.33;100.00
9421;BME280;4749;51.398;5.466;2022-12-07T04:59:34;101580.50;;;5.34;100.00
9421;BME280;4749;51.398;5.466;2022-12-07T05:02:06;101580.69;;;5.39;100.00
9421;BME280;4749;51.398;5.466;2022-12-07T05:04:33;101579.84;;;5.40;100.00
9421;BME280;4749;51.398;5.466;2022-12-07T05:07:01;101578.16;;;5.42;100.00
9421;BME280;4749;51.398;5.466;2022-12-07T05:09:28;101589.53;;;5.44;100.00
9421;BME280;4749;51.398;5.466;2022-12-07T05:11:55;101590.47;;;5.46;100.00
9421;BME280;4749;51.398;5.466;2022-12-07T05:14:23;101589.56;;;5.45;100.00
9421;BME280;4749;51.398;5.466;2022-12-07T05:16:51;101591.34;;;5.46;100.00
9421;BME280;4749;51.398;5.466;2022-12-07T05:19:19;101584.38;;;5.45;100.00
9421;BME280;4749;51.398;5.466;2022-12-07T05:21:46;101581.75;;;5.45;100.00
9421;BME280;4749;51.398;5.466;2022-12-07T05:24:15;101583.47;;;5.45;100.00
9421;BME280;4749;51.398;5.466;2022-12-07T05:26:43;101582.59;;;5.44;100.00
9421;BME280;4749;51.398;5.466;2022-12-07T05:29:14;101575.59;;;5.43;100.00
9421;BME280;4749;51.398;5.466;2022-12-07T05:31:42;101576.53;;;5.45;100.00
9421;BME280;4749;51.398;5.466;2022-12-07T05:34:10;101577.44;;;5.46;100.00
9421;BME280;4749;51.398;5.466;2022-12-07T05:36:37;101574.81;;;5.46;100.00
9421;BME280;4749;51.398;5.466;2022-12-07T05:39:04;101577.50;;;5.47;100.00
9421;BME280;4749;51.398;5.466;2022-12-07T05:41:32;101574.00;;;5.47;100.00
9421;BME280;4749;51.398;5.466;2022-12-07T05:44:17;101580.88;;;5.45;100.00
9421;BME280;4749;51.398;5.466;2022-12-07T05:46:44;101572.13;;;5.43;100.00
9421;BME280;4749;51.398;5.466;2022-12-07T05:49:11;101575.47;;;5.39;100.00
9421;BME280;4749;51.398;5.466;2022-12-07T05:51:38;101573.59;;;5.36;100.00
9421;BME280;4749;51.398;5.466;2022-12-07T05:54:06;101569.97;;;5.31;100.00
9421;BME280;4749;51.398;5.466;2022-12-07T05:56:33;101564.53;;;5.25;100.00
9421;BME280;4749;51.398;5.466;2022-12-07T05:59:00;101566.91;;;5.19;100.00
9421;BME280;4749;51.398;5.466;2022-12-07T06:01:46;101564.91;;;5.12;100.00
9421;BME280;4749;51.398;5.466;2022-12-07T06:04:13;101562.09;;;5.05;100.00
9421;BME280;4749;51.398;5.466;2022-12-07T06:06:40;101565.31;;;4.98;100.00
9421;BME280;4749;51.398;5.466;2022-12-07T06:09:07;101573.00;;;4.95;100.00
9421;BME280;4749;51.398;5.466;2022-12-07T06:11:35;101572.06;;;4.93;100.00
9421;BME280;4749;51.398;5.466;2022-12-07T06:14:20;101572.84;;;4.91;100.00
9421;BME280;4749;51.398;5.466;2022-12-07T06:16:48;101572.66;;;4.86;100.00
9421;BME280;4749;51.398;5.466;2022-12-07T06:19:15;101575.94;;;4.80;100.00
9421;BME280;4749;51.398;5.466;2022-12-07T06:21:43;101582.69;;;4.75;100.00
9421;BME280;4749;51.398;5.466;2022-12-07T06:24:12;101585.13;;;4.71;100.00
9421;BME280;4749;51.398;5.466;2022-12-07T06:26:40;101577.13;;;4.66;100.00
9421;BME280;4749;51.398;5.466;2022-12-07T06:29:08;101585.63;;;4.62;100.00
9421;BME280;4749;51.398;5.466;2022-12-07T06:31:35;101578.56;;;4.58;100.00
9421;BME280;4749;51.398;5.466;2022-12-07T06:34:11;101580.06;;;4.53;100.00
9421;BME280;4749;51.398;5.466;2022-12-07T06:36:39;101579.88;;;4.47;100.00
9421;BME280;4749;51.398;5.466;2022-12-07T06:39:07;101581.44;;;4.43;100.00
9421;BME280;4749;51.398;5.466;2022-12-07T06:41:38;101580.38;;;4.38;100.00
9421;BME280;4749;51.398;5.466;2022-12-07T06:44:06;101581.09;;;4.34;100.00
9421;BME280;4749;51.398;5.466;2022-12-07T06:46:34;101582.69;;;4.31;100.00
9421;BME280;4749;51.398;5.466;2022-12-07T06:49:05;101574.81;;;4.29;100.00
9421;BME280;4749;51.398;5.466;2022-12-07T06:51:33;101586.91;;;4.29;100.00
9421;BME280;4749;51.398;5.466;2022-12-07T06:54:04;101582.53;;;4.28;100.00
9421;BME280;4749;51.398;5.466;2022-12-07T06:56:33;101579.94;;;4.28;100.00
9421;BME280;4749;51.398;5.466;2022-12-07T06:59:00;101590.44;;;4.29;100.00
9421;BME280;4749;51.398;5.466;2022-12-07T07:01:28;101591.44;;;4.33;100.00
9421;BME280;4749;51.398;5.466;2022-12-07T07:03:55;101584.50;;;4.33;100.00
9421;BME280;4749;51.398;5.466;2022-12-07T07:06:23;101587.22;;;4.36;100.00
9421;BME280;4749;51.398;5.466;2022-12-07T07:08:50;101588.94;;;4.36;100.00
9421;BME280;4749;51.398;5.466;2022-12-07T07:11:18;101585.41;;;4.34;100.00
9421;BME280;4749;51.398;5.466;2022-12-07T07:13:45;101588.00;;;4.34;100.00
9421;BME280;4749;51.398;5.466;2022-12-07T07:16:13;101579.38;;;4.35;100.00
9421;BME280;4749;51.398;5.466;2022-12-07T07:18:40;101585.47;;;4.35;100.00
9421;BME280;4749;51.398;5.466;2022-12-07T07:21:07;101582.03;;;4.36;100.00
9421;BME280;4749;51.398;5.466;2022-12-07T07:23:34;101574.28;;;4.38;100.00
9421;BME280;4749;51.398;5.466;2022-12-07T07:26:03;101580.50;;;4.41;100.00
9421;BME280;4749;51.398;5.466;2022-12-07T07:28:30;101588.38;;;4.43;100.00
9421;BME280;4749;51.398;5.466;2022-12-07T07:30:58;101593.72;;;4.46;100.00
9421;BME280;4749;51.398;5.466;2022-12-07T07:33:25;101586.84;;;4.48;100.00
9421;BME280;4749;51.398;5.466;2022-12-07T07:35:52;101578.25;;;4.50;100.00
9421;BME280;4749;51.398;5.466;2022-12-07T07:38:19;101587.97;;;4.55;100.00
9421;BME280;4749;51.398;5.466;2022-12-07T07:40:47;101588.03;;;4.56;100.00
9421;BME280;4749;51.398;5.466;2022-12-07T07:43:14;101588.91;;;4.57;100.00
9421;BME280;4749;51.398;5.466;2022-12-07T07:45:41;101591.53;;;4.57;100.00
9421;BME280;4749;51.398;5.466;2022-12-07T07:48:08;101589.69;;;4.54;100.00
9421;BME280;4749;51.398;5.466;2022-12-07T07:50:35;101587.16;;;4.56;100.00
9421;BME280;4749;51.398;5.466;2022-12-07T07:53:03;101602.03;;;4.60;100.00
9421;BME280;4749;51.398;5.466;2022-12-07T07:55:30;101601.47;;;4.67;100.00
9421;BME280;4749;51.398;5.466;2022-12-07T07:57:57;101605.13;;;4.72;100.00
9421;BME280;4749;51.398;5.466;2022-12-07T08:00:25;101597.63;;;4.79;100.00
9421;BME280;4749;51.398;5.466;2022-12-07T08:02:52;101605.69;;;4.87;100.00
9421;BME280;4749;51.398;5.466;2022-12-07T08:05:19;101609.38;;;4.92;100.00
9421;BME280;4749;51.398;5.466;2022-12-07T08:07:46;101613.94;;;4.98;100.00
9421;BME280;4749;51.398;5.466;2022-12-07T08:10:14;101600.19;;;5.02;100.00
9421;BME280;4749;51.398;5.466;2022-12-07T08:12:43;101599.47;;;5.06;100.00
9421;BME280;4749;51.398;5.466;2022-12-07T08:15:30;101603.97;;;5.10;100.00
9421;BME280;4749;51.398;5.466;2022-12-07T08:17:58;101611.91;;;5.13;100.00
9421;BME280;4749;51.398;5.466;2022-12-07T08:20:26;101604.09;;;5.13;100.00
9421;BME280;4749;51.398;5.466;2022-12-07T08:22:53;101604.97;;;5.14;100.00
9421;BME280;4749;51.398;5.466;2022-12-07T08:25:21;101611.13;;;5.16;100.00
9421;BME280;4749;51.398;5.466;2022-12-07T08:27:51;101617.47;;;5.22;100.00
9421;BME280;4749;51.398;5.466;2022-12-07T08:30:19;101616.03;;;5.30;100.00
9421;BME280;4749;51.398;5.466;2022-12-07T08:32:47;101612.72;;;5.36;100.00
9421;BME280;4749;51.398;5.466;2022-12-07T08:35:15;101622.31;;;5.37;100.00
9421;BME280;4749;51.398;5.466;2022-12-07T08:37:43;101616.44;;;5.43;100.00
9421;BME280;4749;51.398;5.466;2022-12-07T08:40:12;101629.66;;;5.47;100.00
9421;BME280;4749;51.398;5.466;2022-12-07T08:42:42;101627.31;;;5.55;100.00
9421;BME280;4749;51.398;5.466;2022-12-07T08:45:14;101624.16;;;5.63;100.00
9421;BME280;4749;51.398;5.466;2022-12-07T08:47:57;101622.69;;;5.72;100.00
9421;BME280;4749;51.398;5.466;2022-12-07T08:50:28;101622.06;;;5.79;100.00
9421;BME280;4749;51.398;5.466;2022-12-07T08:52:57;101619.03;;;5.90;100.00
9421;BME280;4749;51.398;5.466;2022-12-07T08:55:27;101612.41;;;6.00;100.00
9421;BME280;4749;51.398;5.466;2022-12-07T08:57:54;101610.03;;;6.08;100.00
9421;BME280;4749;51.398;5.466;2022-12-07T09:00:22;101614.69;;;6.16;100.00
9421;BME280;4749;51.398;5.466;2022-12-07T09:02:49;101610.59;;;6.25;100.00
9421;BME280;4749;51.398;5.466;2022-12-07T09:05:16;101610.03;;;6.35;100.00
9421;BME280;4749;51.398;5.466;2022-12-07T09:07:46;101611.19;;;6.43;100.00
9421;BME280;4749;51.398;5.466;2022-12-07T09:10:15;101607.72;;;6.44;100.00
9421;BME280;4749;51.398;5.466;2022-12-07T09:12:42;101614.75;;;6.46;100.00
9421;BME280;4749;51.398;5.466;2022-12-07T09:15:09;101614.03;;;6.51;100.00
9421;BME280;4749;51.398;5.466;2022-12-07T09:17:36;101612.38;;;6.54;100.00
9421;BME280;4749;51.398;5.466;2022-12-07T09:20:06;101614.28;;;6.58;100.00
9421;BME280;4749;51.398;5.466;2022-12-07T09:22:33;101610.94;;;6.64;100.00
9421;BME280;4749;51.398;5.466;2022-12-07T09:25:03;101613.72;;;6.68;100.00
9421;BME280;4749;51.398;5.466;2022-12-07T09:27:31;101612.16;;;6.73;100.00
9421;BME280;4749;51.398;5.466;2022-12-07T09:29:58;101605.25;;;6.77;100.00
9421;BME280;4749;51.398;5.466;2022-12-07T09:32:26;101607.19;;;6.83;100.00
9421;BME280;4749;51.398;5.466;2022-12-07T09:34:53;101611.69;;;6.88;100.00
9421;BME280;4749;51.398;5.466;2022-12-07T09:37:20;101608.38;;;6.94;100.00
9421;BME280;4749;51.398;5.466;2022-12-07T09:39:48;101613.75;;;6.98;100.00
9421;BME280;4749;51.398;5.466;2022-12-07T09:42:52;101605.97;;;7.00;100.00
9421;BME280;4749;51.398;5.466;2022-12-07T09:45:27;101610.31;;;6.99;100.00
9421;BME280;4749;51.398;5.466;2022-12-07T09:47:58;101604.00;;;6.93;100.00
9421;BME280;4749;51.398;5.466;2022-12-07T09:50:28;101609.97;;;6.89;100.00
9421;BME280;4749;51.398;5.466;2022-12-07T09:53:29;101607.19;;;6.83;100.00
9421;BME280;4749;51.398;5.466;2022-12-07T09:55:57;101611.69;;;6.88;100.00
9421;BME280;4749;51.398;5.466;2022-12-07T09:58:27;101612.53;;;6.87;100.00
9421;BME280;4749;51.398;5.466;2022-12-07T10:01:21;101615.09;;;6.86;100.00
9421;BME280;4749;51.398;5.466;2022-12-07T10:03:59;101609.00;;;6.85;100.00
9421;BME280;4749;51.398;5.466;2022-12-07T10:06:27;101615.38;;;6.95;100.00
9421;BME280;4749;51.398;5.466;2022-12-07T10:08:54;101602.41;;;6.98;100.00
9421;BME280;4749;51.398;5.466;2022-12-07T10:11:22;101598.00;;;6.97;100.00
9421;BME280;4749;51.398;5.466;2022-12-07T10:13:52;101592.06;;;7.02;100.00
9421;BME280;4749;51.398;5.466;2022-12-07T10:16:39;101594.84;;;7.07;100.00
9421;BME280;4749;51.398;5.466;2022-12-07T10:19:31;101589.94;;;7.19;100.00
9421;BME280;4749;51.398;5.466;2022-12-07T10:24:28;101590.19;;;7.28;100.00
9421;BME280;4749;51.398;5.466;2022-12-07T10:26:56;101587.69;;;7.31;100.00
9421;BME280;4749;51.398;5.466;2022-12-07T10:29:38;101581.63;;;7.32;100.00
9421;BME280;4749;51.398;5.466;2022-12-07T10:34:42;101575.75;;;7.41;100.00
9421;BME280;4749;51.398;5.466;2022-12-07T10:37:19;101563.69;;;7.48;100.00
9421;BME280;4749;51.398;5.466;2022-12-07T10:39:57;101559.50;;;7.54;100.00
9421;BME280;4749;51.398;5.466;2022-12-07T10:42:31;101560.56;;;7.61;100.00
9421;BME280;4749;51.398;5.466;2022-12-07T10:45:16;101561.47;;;7.63;100.00
9421;BME280;4749;51.398;5.466;2022-12-07T10:48:07;101554.44;;;7.60;100.00
9421;BME280;4749;51.398;5.466;2022-12-07T11:07:34;101541.81;;;7.44;100.00
9421;BME280;4749;51.398;5.466;2022-12-07T11:13:25;101537.53;;;7.48;100.00
9421;BME280;4749;51.398;5.466;2022-12-07T11:16:34;101532.41;;;7.52;100.00
9421;BME280;4749;51.398;5.466;2022-12-07T11:22:48;101525.59;;;7.92;100.00
9421;BME280;4749;51.398;5.466;2022-12-07T11:26:05;101513.19;;;8.23;100.00
9421;BME280;4749;51.398;5.466;2022-12-07T11:29:12;101506.88;;;8.51;100.00
9421;BME280;4749;51.398;5.466;2022-12-07T11:37:30;101502.09;;;8.73;100.00
9421;BME280;4749;51.398;5.466;2022-12-07T11:42:46;101496.25;;;8.85;100.00
9421;BME280;4749;51.398;5.466;2022-12-07T11:45:29;101495.41;;;8.88;100.00
9421;BME280;4749;51.398;5.466;2022-12-07T11:48:11;101496.28;;;8.88;100.00
9421;BME280;4749;51.398;5.466;2022-12-07T11:50:58;101491.13;;;8.91;100.00
9421;BME280;4749;51.398;5.466;2022-12-07T11:53:55;101486.00;;;8.99;100.00
9421;BME280;4749;51.398;5.466;2022-12-07T11:56:27;101479.09;;;9.02;100.00
9421;BME280;4749;51.398;5.466;2022-12-07T11:59:17;101485.28;;;9.08;100.00
9421;BME280;4749;51.398;5.466;2022-12-07T12:02:18;101475.75;;;9.11;100.00
9421;BME280;4749;51.398;5.466;2022-12-07T12:05:20;101481.91;;;9.13;100.00
9421;BME280;4749;51.398;5.466;2022-12-07T12:20:18;101485.72;;;8.84;100.00
9421;BME280;4749;51.398;5.466;2022-12-07T12:23:09;101477.91;;;8.87;100.00
9421;BME280;4749;51.398;5.466;2022-12-07T12:25:49;101481.41;;;8.87;100.00
9421;BME280;4749;51.398;5.466;2022-12-07T12:33:48;101466.59;;;8.91;100.00
9421;BME280;4749;51.398;5.466;2022-12-07T12:51:48;101441.16;;;8.84;100.00
9421;BME280;4749;51.398;5.466;2022-12-07T12:54:26;101436.84;;;8.87;100.00
9421;BME280;4749;51.398;5.466;2022-12-07T12:57:24;101428.97;;;8.87;100.00
9421;BME280;4749;51.398;5.466;2022-12-07T13:02:37;101428.06;;;8.85;100.00
9421;BME280;4749;51.398;5.466;2022-12-07T13:18:37;101422.13;;;8.95;100.00
9421;BME280;4749;51.398;5.466;2022-12-07T13:26:39;101405.47;;;8.92;100.00
9421;BME280;4749;51.398;5.466;2022-12-07T13:29:19;101404.50;;;8.88;100.00
9421;BME280;4749;51.398;5.466;2022-12-07T13:31:55;101406.22;;;8.85;100.00
9421;BME280;4749;51.398;5.466;2022-12-07T13:34:42;101394.72;;;8.78;100.00
9421;BME280;4749;51.398;5.466;2022-12-07T13:37:28;101397.22;;;8.72;100.00
9421;BME280;4749;51.398;5.466;2022-12-07T13:40:22;101391.75;;;8.60;100.00
9421;BME280;4749;51.398;5.466;2022-12-07T13:42:59;101388.00;;;8.47;100.00
9421;BME280;4749;51.398;5.466;2022-12-07T13:45:29;101385.06;;;8.33;100.00
9421;BME280;4749;51.398;5.466;2022-12-07T13:48:31;101390.88;;;8.18;100.00
9421;BME280;4749;51.398;5.466;2022-12-07T13:51:02;101387.22;;;8.10;100.00
9421;BME280;4749;51.398;5.466;2022-12-07T13:53:32;101394.00;;;8.02;100.00
9421;BME280;4749;51.398;5.466;2022-12-07T13:56:00;101390.41;;;7.97;100.00
9421;BME280;4749;51.398;5.466;2022-12-07T13:58:31;101389.50;;;7.95;100.00
9421;BME280;4749;51.398;5.466;2022-12-07T14:01:00;101392.09;;;7.95;100.00
9421;BME280;4749;51.398;5.466;2022-12-07T14:03:34;101392.28;;;8.03;100.00
9421;BME280;4749;51.398;5.466;2022-12-07T14:06:15;101390.72;;;8.12;100.00
9421;BME280;4749;51.398;5.466;2022-12-07T14:08:43;101382.16;;;8.19;100.00
9421;BME280;4749;51.398;5.466;2022-12-07T14:11:18;101379.78;;;8.32;100.00
9421;BME280;4749;51.398;5.466;2022-12-07T14:13:58;101382.66;;;8.42;100.00
9421;BME280;4749;51.398;5.466;2022-12-07T14:16:29;101371.38;;;8.46;100.00
9421;BME280;4749;51.398;5.466;2022-12-07T14:19:00;101368.75;;;8.46;100.00
9421;BME280;4749;51.398;5.466;2022-12-07T14:21:31;101362.56;;;8.41;100.00
9421;BME280;4749;51.398;5.466;2022-12-07T14:24:19;101351.09;;;8.36;100.00
9421;BME280;4749;51.398;5.466;2022-12-07T14:26:49;101358.81;;;8.32;100.00
9421;BME280;4749;51.398;5.466;2022-12-07T14:31:55;101351.84;;;8.32;100.00
9421;BME280;4749;51.398;5.466;2022-12-07T14:34:24;101346.56;;;8.31;100.00
9421;BME280;4749;51.398;5.466;2022-12-07T14:36:51;101350.94;;;8.30;100.00
9421;BME280;4749;51.398;5.466;2022-12-07T14:39:19;101346.50;;;8.26;100.00
9421;BME280;4749;51.398;5.466;2022-12-07T14:41:46;101336.75;;;8.19;100.00
9421;BME280;4749;51.398;5.466;2022-12-07T14:44:22;101335.69;;;8.09;100.00
9421;BME280;4749;51.398;5.466;2022-12-07T14:46:55;101337.28;;;8.03;100.00
9421;BME280;4749;51.398;5.466;2022-12-07T14:49:42;101334.44;;;7.92;100.00
9421;BME280;4749;51.398;5.466;2022-12-07T14:52:29;101335.13;;;7.83;100.00
9421;BME280;4749;51.398;5.466;2022-12-07T14:55:25;101336.72;;;7.75;100.00
9421;BME280;4749;51.398;5.466;2022-12-07T14:57:54;101333.91;;;7.68;100.00
9421;BME280;4749;51.398;5.466;2022-12-07T15:00:25;101339.06;;;7.65;100.00
9421;BME280;4749;51.398;5.466;2022-12-07T15:02:53;101335.50;;;7.61;100.00
9421;BME280;4749;51.398;5.466;2022-12-07T15:05:21;101333.72;;;7.58;100.00
9421;BME280;4749;51.398;5.466;2022-12-07T15:07:51;101331.88;;;7.56;100.00
9421;BME280;4749;51.398;5.466;2022-12-07T15:10:24;101326.56;;;7.51;100.00
9421;BME280;4749;51.398;5.466;2022-12-07T15:13:01;101331.66;;;7.45;100.00
9421;BME280;4749;51.398;5.466;2022-12-07T15:15:51;101330.69;;;7.40;100.00
9421;BME280;4749;51.398;5.466;2022-12-07T15:18:20;101334.91;;;7.35;100.00
9421;BME280;4749;51.398;5.466;2022-12-07T15:20:48;101332.16;;;7.30;100.00
9421;BME280;4749;51.398;5.466;2022-12-07T15:23:16;101332.09;;;7.27;100.00
9421;BME280;4749;51.398;5.466;2022-12-07T15:25:46;101332.06;;;7.24;100.00
9421;BME280;4749;51.398;5.466;2022-12-07T15:28:14;101332.72;;;7.16;100.00
9421;BME280;4749;51.398;5.466;2022-12-07T15:30:43;101337.75;;;7.08;100.00
9421;BME280;4749;51.398;5.466;2022-12-07T15:33:12;101326.22;;;7.00;100.00
9421;BME280;4749;51.398;5.466;2022-12-07T15:35:41;101331.22;;;6.91;100.00
9421;BME280;4749;51.398;5.466;2022-12-07T15:38:10;101326.69;;;6.84;100.00